createdAt,value
2023-03-07T00:09:54.786Z,8.93
2023-03-07T00:12:22.897Z,7.40
2023-03-07T00:14:51.060Z,7.43
2023-03-07T00:17:19.124Z,8.23
2023-03-07T00:19:47.252Z,8.47
2023-03-07T00:22:15.380Z,6.33
2023-03-07T00:24:43.553Z,6.37
2023-03-07T00:27:13.004Z,6.80
2023-03-07T00:29:41.244Z,5.83
2023-03-07T00:32:09.398Z,6.23
2023-03-07T00:34:37.467Z,4.87
2023-03-07T00:38:01.579Z,6.73
2023-03-07T00:40:29.653Z,6.33
2023-03-07T00:42:59.104Z,5.50
2023-03-07T00:45:27.156Z,4.87
2023-03-07T00:47:56.213Z,5.50
2023-03-07T00:50:24.250Z,4.93
2023-03-07T00:52:52.371Z,6.53
2023-03-07T00:55:20.483Z,6.23
2023-03-07T00:57:48.572Z,6.53
2023-03-07T01:00:18.506Z,7.27
2023-03-07T01:02:46.826Z,7.77
2023-03-07T01:05:14.912Z,8.03
2023-03-07T01:07:43.117Z,7.93
2023-03-07T01:10:11.899Z,8.03
2023-03-07T01:12:40.021Z,7.83
2023-03-07T01:15:09.022Z,7.17
2023-03-07T01:17:38.490Z,6.47
2023-03-07T01:20:07.649Z,4.70
2023-03-07T01:22:35.686Z,5.67
2023-03-07T01:25:03.807Z,5.53
2023-03-07T01:27:31.861Z,8.67
2023-03-07T01:29:59.929Z,4.67
2023-03-07T01:32:28.024Z,5.80
2023-03-07T01:34:57.672Z,4.17
2023-03-07T01:37:25.900Z,4.57
2023-03-07T01:39:54.344Z,3.80
2023-03-07T01:42:23.492Z,8.30
2023-03-07T01:45:03.877Z,6.20
2023-03-07T01:47:31.967Z,5.10
2023-03-07T01:50:05.792Z,5.07
2023-03-07T01:52:37.054Z,4.93
2023-03-07T01:55:11.197Z,5.43
2023-03-07T01:57:42.621Z,5.60
2023-03-07T02:00:14.021Z,5.50
2023-03-07T02:02:44.956Z,5.07
2023-03-07T02:05:21.554Z,5.50
2023-03-07T02:07:52.042Z,6.60
2023-03-07T02:10:23.103Z,4.83
2023-03-07T02:12:52.953Z,6.60
2023-03-07T02:15:21.127Z,5.13
2023-03-07T02:17:49.558Z,4.93
2023-03-07T02:20:30.132Z,6.90
2023-03-07T02:22:58.422Z,5.43
2023-03-07T02:25:32.425Z,4.03
2023-03-07T02:28:04.351Z,5.70
2023-03-07T02:30:32.476Z,4.73
2023-03-07T02:33:00.673Z,6.50
2023-03-07T02:35:28.874Z,7.07
2023-03-07T02:38:00.770Z,8.23
2023-03-07T02:52:03.067Z,11.20
2023-03-07T02:54:31.204Z,11.30
2023-03-07T02:56:59.316Z,12.53
2023-03-07T02:59:27.398Z,11.17
2023-03-07T03:07:27.526Z,12.70
2023-03-07T03:09:55.635Z,11.87
2023-03-07T03:12:23.773Z,12.83
2023-03-07T03:14:51.999Z,13.10
2023-03-07T03:17:20.063Z,12.00
2023-03-07T03:19:48.194Z,12.23
2023-03-07T03:22:16.335Z,11.10
2023-03-07T03:24:45.754Z,14.33
2023-03-07T03:27:13.829Z,13.20
2023-03-07T03:29:41.897Z,11.97
2023-03-07T03:32:10.067Z,13.73
2023-03-07T03:34:38.129Z,12.53
2023-03-07T03:37:07.907Z,13.40
2023-03-07T03:39:36.001Z,11.60
2023-03-07T03:42:06.265Z,14.37
2023-03-07T03:59:59.531Z,13.30
2023-03-07T04:02:30.630Z,14.00
2023-03-07T04:04:58.922Z,14.50
2023-03-07T04:07:29.137Z,13.87
2023-03-07T04:09:57.310Z,12.93
2023-03-07T04:12:25.426Z,16.57
2023-03-07T04:14:53.528Z,11.90
2023-03-07T04:17:23.074Z,13.20
2023-03-07T04:19:51.180Z,13.17
2023-03-07T04:22:19.214Z,13.90
2023-03-07T04:24:47.319Z,12.93
2023-03-07T04:27:15.347Z,10.37
2023-03-07T04:29:43.486Z,8.63
2023-03-07T04:32:11.608Z,9.77
2023-03-07T04:34:41.290Z,8.63
2023-03-07T04:37:09.398Z,7.57
2023-03-07T04:39:37.489Z,9.10
2023-03-07T04:42:05.915Z,9.10
2023-03-07T04:44:34.050Z,8.40
2023-03-07T04:47:02.344Z,6.53
2023-03-07T04:49:30.419Z,7.07
2023-03-07T04:51:59.840Z,9.23
2023-03-07T04:54:27.983Z,9.93
2023-03-07T04:56:56.236Z,6.97
2023-03-07T04:59:24.473Z,5.63
2023-03-07T05:01:52.632Z,9.37
2023-03-07T05:04:20.768Z,8.93
2023-03-07T05:06:49.037Z,9.10
2023-03-07T05:09:18.494Z,7.83
2023-03-07T05:11:46.558Z,7.53
2023-03-07T05:14:14.662Z,7.10
2023-03-07T05:16:42.912Z,8.70
2023-03-07T05:19:13.316Z,9.83
2023-03-07T05:21:41.839Z,13.03
2023-03-07T05:24:09.943Z,10.27
2023-03-07T05:26:39.415Z,10.43
2023-03-07T05:29:07.583Z,10.27
2023-03-07T05:31:36.245Z,11.17
2023-03-07T05:34:04.501Z,12.97
2023-03-07T05:36:32.613Z,12.00
2023-03-07T05:39:00.680Z,10.63
2023-03-07T05:41:28.766Z,9.67
2023-03-07T05:43:58.588Z,12.40
2023-03-07T05:46:26.822Z,11.13
2023-03-07T05:48:55.414Z,8.97
2023-03-07T05:51:23.522Z,11.57
2023-03-07T05:53:51.852Z,13.13
2023-03-07T05:56:20.001Z,12.67
2023-03-07T05:58:48.043Z,12.20
2023-03-07T06:01:17.529Z,13.40
2023-03-07T06:03:45.597Z,12.60
2023-03-07T06:06:13.786Z,11.13
2023-03-07T06:08:41.904Z,14.00
2023-03-07T06:11:11.147Z,14.10
2023-03-07T06:13:39.190Z,14.07
2023-03-07T06:16:07.655Z,13.00
2023-03-07T06:18:37.265Z,12.30
2023-03-07T06:21:07.418Z,12.87
2023-03-07T06:23:37.455Z,11.00
2023-03-07T06:26:07.700Z,12.23
2023-03-07T06:28:36.925Z,10.60
2023-03-07T06:31:10.460Z,11.93
2023-03-07T06:33:40.161Z,12.33
2023-03-07T06:36:09.858Z,10.87
2023-03-07T06:38:38.179Z,11.73
2023-03-07T06:41:07.029Z,11.90
2023-03-07T06:43:35.584Z,11.90
2023-03-07T06:46:04.453Z,11.17
2023-03-07T06:48:34.794Z,12.30
2023-03-07T06:51:09.559Z,8.53
2023-03-07T06:53:37.653Z,10.00
2023-03-07T06:56:06.245Z,11.97
2023-03-07T06:58:34.325Z,11.60
2023-03-07T07:01:02.423Z,9.27
2023-03-07T07:03:30.557Z,10.10
2023-03-07T07:05:58.729Z,8.70
2023-03-07T07:08:28.190Z,8.33
2023-03-07T07:10:57.223Z,5.80
2023-03-07T07:13:25.325Z,4.07
2023-03-07T07:15:53.512Z,4.47
2023-03-07T07:18:21.629Z,3.33
2023-03-07T07:20:55.334Z,4.97
2023-03-07T07:23:23.665Z,2.50
2023-03-07T07:25:53.137Z,4.17
2023-03-07T07:28:21.241Z,2.67
2023-03-07T07:30:49.356Z,3.20
2023-03-07T07:33:17.730Z,3.57
2023-03-07T07:35:46.561Z,3.73
2023-03-07T07:38:15.103Z,3.97
2023-03-07T07:40:43.179Z,2.90
2023-03-07T07:43:16.672Z,2.97
2023-03-07T07:45:44.904Z,2.50
2023-03-07T07:48:12.968Z,1.70
2023-03-07T07:50:41.117Z,4.13
2023-03-07T07:53:09.417Z,2.53
2023-03-07T07:55:37.576Z,2.10
2023-03-07T07:58:05.809Z,3.73
2023-03-07T08:00:35.706Z,2.17
2023-03-07T08:03:04.592Z,4.60
2023-03-07T08:05:32.763Z,2.33
2023-03-07T08:08:00.903Z,3.30
2023-03-07T08:10:29.070Z,2.10
2023-03-07T08:12:57.229Z,1.70
2023-03-07T08:15:25.437Z,2.47
2023-03-07T08:17:54.940Z,4.83
2023-03-07T08:20:25.608Z,4.00
2023-03-07T08:22:53.694Z,2.93
2023-03-07T08:25:23.839Z,4.37
2023-03-07T08:27:55.124Z,3.33
2023-03-07T08:30:23.802Z,3.23
2023-03-07T08:32:52.567Z,3.33
2023-03-07T08:35:23.010Z,2.67
2023-03-07T08:37:55.407Z,3.33
2023-03-07T08:40:24.943Z,5.43
2023-03-07T08:42:55.141Z,3.03
2023-03-07T08:45:23.371Z,4.20
2023-03-07T08:47:54.428Z,4.00
2023-03-07T08:50:25.941Z,4.67
2023-03-07T08:52:54.236Z,4.27
2023-03-07T08:55:22.386Z,4.03
2023-03-07T08:57:50.538Z,2.10
2023-03-07T09:00:19.599Z,3.83
2023-03-07T09:02:47.814Z,4.63
2023-03-07T09:05:15.943Z,2.67
2023-03-07T09:07:45.459Z,2.57
2023-03-07T09:10:13.612Z,2.73
2023-03-07T09:12:41.877Z,3.50
2023-03-07T09:15:11.089Z,4.70
2023-03-07T09:17:39.199Z,2.10
2023-03-07T09:20:09.175Z,2.47
2023-03-07T09:22:37.269Z,3.43
2023-03-07T09:25:07.669Z,2.83
2023-03-07T09:27:36.106Z,2.53
2023-03-07T09:30:04.932Z,2.17
2023-03-07T09:32:34.053Z,3.43
2023-03-07T09:35:02.170Z,3.87
2023-03-07T09:37:30.445Z,3.87
2023-03-07T09:39:58.568Z,3.43
2023-03-07T09:42:37.466Z,3.73
2023-03-07T09:45:19.756Z,3.57
2023-03-07T09:48:29.732Z,2.47
2023-03-07T09:51:07.626Z,2.70
2023-03-07T09:53:43.138Z,2.07
2023-03-07T09:56:16.625Z,2.83
2023-03-07T09:58:50.086Z,3.27
2023-03-07T10:01:22.745Z,3.40
2023-03-07T10:03:58.817Z,2.80
2023-03-07T10:06:31.689Z,3.57
2023-03-07T10:09:01.785Z,3.73
2023-03-07T10:11:46.329Z,2.57
2023-03-07T10:14:36.090Z,1.13
2023-03-07T10:17:13.042Z,1.63
2023-03-07T10:19:47.674Z,1.57
2023-03-07T10:22:25.194Z,3.70
2023-03-07T10:25:05.647Z,1.77
2023-03-07T10:27:33.894Z,1.60
2023-03-07T10:30:13.313Z,2.13
2023-03-07T10:32:45.245Z,2.27
2023-03-07T10:35:20.926Z,2.17
2023-03-07T10:37:51.456Z,1.87
2023-03-07T10:40:32.823Z,2.57
2023-03-07T10:43:01.724Z,2.27
2023-03-07T10:45:33.186Z,1.70
2023-03-07T10:48:07.836Z,1.87
2023-03-07T10:50:44.372Z,2.30
2023-03-07T10:53:25.958Z,2.47
2023-03-07T10:55:54.516Z,2.90
2023-03-07T10:58:25.060Z,2.10
2023-03-07T11:01:03.949Z,1.57
2023-03-07T11:03:49.691Z,3.73
2023-03-07T11:06:47.055Z,1.80
2023-03-07T11:09:23.313Z,1.87
2023-03-07T11:11:58.066Z,2.30
2023-03-07T11:14:27.344Z,2.67
2023-03-07T11:16:59.304Z,1.93
2023-03-07T11:19:39.873Z,5.10
2023-03-07T11:22:22.982Z,2.20
2023-03-07T11:25:00.865Z,2.00
2023-03-07T11:27:35.728Z,3.30
2023-03-07T11:30:09.100Z,2.43
2023-03-07T11:32:44.681Z,2.37
2023-03-07T11:35:18.998Z,2.03
2023-03-07T11:37:58.938Z,2.00
2023-03-07T11:40:29.550Z,2.43
2023-03-07T11:43:12.498Z,2.53
2023-03-07T11:45:48.503Z,2.63
2023-03-07T11:48:32.976Z,2.57
2023-03-07T11:51:03.314Z,4.23
2023-03-07T11:53:44.322Z,2.57
2023-03-07T11:56:24.698Z,2.87
2023-03-07T11:59:17.077Z,4.67
2023-03-07T12:01:51.569Z,4.53
2023-03-07T12:04:54.448Z,2.57
2023-03-07T12:07:48.327Z,1.20
2023-03-07T12:10:32.565Z,2.17
2023-03-07T12:13:12.523Z,2.63
2023-03-07T12:15:46.185Z,2.70
2023-03-07T12:18:39.182Z,5.13
2023-03-07T12:21:22.828Z,2.23
2023-03-07T12:23:54.923Z,3.83
2023-03-07T12:26:27.788Z,2.47
2023-03-07T12:29:02.666Z,1.83
2023-03-07T12:31:35.829Z,2.97
2023-03-07T12:34:07.984Z,1.30
2023-03-07T12:36:44.010Z,2.97
2023-03-07T12:39:21.291Z,1.70
2023-03-07T12:41:58.917Z,1.50
2023-03-07T12:44:34.219Z,1.53
2023-03-07T12:47:11.869Z,1.20
2023-03-07T12:49:50.117Z,1.70
2023-03-07T12:52:30.010Z,1.90
2023-03-07T12:55:02.388Z,2.07
2023-03-07T12:57:35.313Z,2.17
2023-03-07T13:00:09.073Z,1.93
2023-03-07T13:02:44.174Z,1.40
2023-03-07T13:05:20.074Z,3.43
2023-03-07T13:07:50.976Z,1.20
2023-03-07T13:10:21.307Z,1.97
2023-03-07T13:12:49.766Z,1.73
2023-03-07T13:15:47.290Z,3.23
2023-03-07T13:18:29.815Z,2.63
2023-03-07T13:21:32.595Z,1.63
2023-03-07T13:24:37.202Z,2.67
2023-03-07T13:27:14.827Z,4.60
2023-03-07T13:30:18.233Z,1.50
2023-03-07T13:33:02.776Z,3.17
2023-03-07T13:35:54.095Z,2.10
2023-03-07T13:38:44.115Z,2.10
2023-03-07T13:41:14.925Z,1.90
2023-03-07T13:44:06.675Z,3.40
2023-03-07T13:47:01.276Z,2.00
2023-03-07T13:49:50.215Z,1.83
2023-03-07T13:52:36.255Z,2.83
2023-03-07T13:55:21.142Z,1.60
2023-03-07T13:57:51.394Z,1.80
2023-03-07T14:00:39.006Z,0.90
2023-03-07T14:03:33.027Z,3.50
2023-03-07T14:06:04.940Z,3.27
2023-03-07T14:08:36.394Z,1.83
2023-03-07T14:11:05.388Z,1.17
2023-03-07T14:14:15.831Z,4.47
2023-03-07T14:16:58.090Z,0.47
2023-03-07T14:19:57.411Z,2.10
2023-03-07T14:22:41.025Z,2.30
2023-03-07T14:25:18.958Z,0.53
2023-03-07T14:27:55.673Z,0.50
2023-03-07T14:30:27.304Z,2.40
2023-03-07T14:32:58.748Z,1.63
2023-03-07T14:35:38.329Z,1.07
2023-03-07T14:38:17.987Z,0.87
2023-03-07T14:41:09.936Z,1.60
2023-03-07T14:43:49.746Z,2.10
2023-03-07T14:46:29.578Z,1.23
2023-03-07T14:49:10.302Z,1.40
2023-03-07T14:51:41.804Z,1.37
2023-03-07T14:54:16.612Z,3.13
2023-03-07T14:56:45.087Z,1.90
2023-03-07T14:59:27.776Z,1.57
2023-03-07T15:02:00.115Z,1.53
2023-03-07T15:04:30.545Z,3.13
2023-03-07T15:07:00.871Z,3.60
2023-03-07T15:09:29.997Z,1.67
2023-03-07T15:19:47.938Z,2.27
2023-03-07T15:22:20.587Z,2.30
2023-03-07T15:24:51.834Z,1.00
2023-03-07T15:27:24.822Z,2.37
2023-03-07T15:29:53.265Z,3.17
2023-03-07T15:32:39.490Z,3.13
2023-03-07T15:35:19.143Z,4.00
2023-03-07T15:37:56.450Z,2.87
2023-03-07T15:40:28.209Z,2.53
2023-03-07T15:42:58.860Z,2.70
2023-03-07T15:45:32.905Z,3.40
2023-03-07T15:48:04.332Z,2.50
2023-03-07T15:50:33.876Z,5.20
2023-03-07T15:53:07.562Z,1.90
2023-03-07T15:55:36.142Z,5.43
2023-03-07T15:58:06.563Z,1.63
2023-03-07T16:00:36.664Z,2.53
2023-03-07T16:03:26.688Z,3.03
2023-03-07T16:05:58.195Z,2.17
2023-03-07T16:08:27.733Z,3.33
2023-03-07T16:11:01.527Z,1.77
2023-03-07T16:13:32.575Z,1.27
2023-03-07T16:16:06.107Z,1.83
2023-03-07T16:18:35.118Z,1.23
2023-03-07T16:21:04.768Z,2.97
2023-03-07T16:23:34.090Z,2.30
2023-03-07T16:26:06.152Z,1.63
2023-03-07T16:28:34.722Z,2.60
2023-03-07T16:31:02.877Z,3.43
2023-03-07T16:33:31.107Z,4.87
2023-03-07T16:36:02.224Z,4.50
2023-03-07T16:38:31.822Z,3.00
2023-03-07T16:41:03.656Z,4.87
2023-03-07T16:43:37.388Z,3.83
2023-03-07T16:46:07.564Z,3.33
2023-03-07T16:48:36.248Z,3.87
2023-03-07T16:51:05.578Z,4.40
2023-03-07T16:53:35.028Z,4.57
2023-03-07T16:56:03.169Z,2.40
2023-03-07T16:58:34.993Z,16.43
2023-03-07T17:01:03.204Z,7.87
2023-03-07T17:03:31.632Z,4.80
2023-03-07T17:06:00.429Z,3.23
2023-03-07T17:08:28.617Z,3.53
2023-03-07T17:10:58.329Z,4.03
2023-03-07T17:13:26.429Z,3.77
2023-03-07T17:15:54.663Z,4.63
2023-03-07T17:18:23.322Z,5.33
2023-03-07T17:20:52.179Z,7.50
2023-03-07T17:23:22.337Z,4.20
2023-03-07T17:25:50.530Z,4.37
2023-03-07T17:28:20.606Z,5.53
2023-03-07T17:30:50.122Z,5.60
2023-03-07T17:33:19.575Z,4.83
2023-03-07T17:35:47.710Z,7.47
2023-03-07T17:38:15.907Z,6.30
2023-03-07T17:40:44.853Z,6.17
2023-03-07T17:43:13.394Z,6.73
2023-03-07T17:45:43.080Z,4.20
2023-03-07T17:48:11.176Z,5.70
2023-03-07T17:50:41.189Z,7.53
2023-03-07T17:53:09.656Z,4.80
2023-03-07T17:55:38.875Z,4.80
2023-03-07T17:58:09.895Z,4.57
2023-03-07T18:00:40.962Z,7.00
2023-03-07T18:03:10.734Z,5.23
2023-03-07T18:05:42.829Z,4.67
2023-03-07T18:08:11.120Z,4.27
2023-03-07T18:10:42.102Z,5.50
2023-03-07T18:13:10.360Z,5.10
2023-03-07T18:15:38.533Z,5.00
2023-03-07T18:18:07.004Z,4.37
2023-03-07T18:20:36.517Z,4.27
2023-03-07T18:23:04.719Z,5.37
2023-03-07T18:25:35.601Z,5.80
2023-03-07T18:28:04.498Z,2.67
2023-03-07T18:30:34.173Z,6.37
2023-03-07T18:33:02.352Z,4.73
2023-03-07T18:35:30.585Z,4.63
2023-03-07T18:38:01.275Z,4.53
2023-03-07T18:40:29.518Z,4.07
2023-03-07T18:42:59.447Z,3.43
2023-03-07T18:45:28.362Z,5.87
2023-03-07T18:47:56.540Z,4.77
2023-03-07T18:50:24.821Z,4.67
2023-03-07T18:52:53.014Z,4.33
2023-03-07T18:55:22.658Z,4.00
2023-03-07T18:57:50.884Z,5.03
2023-03-07T19:00:19.690Z,4.87
2023-03-07T19:02:47.797Z,5.20
2023-03-07T19:05:15.907Z,9.27
2023-03-07T19:07:44.143Z,7.37
2023-03-07T19:10:13.105Z,4.10
2023-03-07T19:12:42.672Z,4.60
2023-03-07T19:15:11.639Z,5.80
2023-03-07T19:17:41.292Z,6.40
2023-03-07T19:20:10.746Z,5.23
2023-03-07T19:22:38.929Z,6.73
2023-03-07T19:25:09.741Z,5.70
2023-03-07T19:27:37.928Z,6.00
2023-03-07T19:30:11.131Z,7.17
2023-03-07T19:32:41.983Z,4.83
2023-03-07T19:35:13.234Z,6.93
2023-03-07T19:37:41.393Z,7.27
2023-03-07T19:40:10.858Z,10.20
2023-03-07T19:42:38.964Z,11.50
2023-03-07T19:45:09.856Z,9.87
2023-03-07T19:47:38.031Z,8.57
2023-03-07T19:50:07.161Z,7.87
2023-03-07T19:52:35.278Z,10.10
2023-03-07T19:55:03.465Z,10.53
2023-03-07T19:57:31.683Z,9.20
2023-03-07T19:59:59.823Z,9.67
2023-03-07T20:02:29.817Z,12.33
2023-03-07T20:04:58.910Z,8.67
2023-03-07T20:07:27.193Z,9.00
2023-03-07T20:09:55.382Z,8.17
2023-03-07T20:12:23.460Z,7.77
2023-03-07T20:14:51.608Z,9.53
2023-03-07T20:17:19.670Z,9.50
2023-03-07T20:19:51.514Z,8.53
2023-03-07T20:22:20.757Z,7.20
2023-03-07T20:24:50.814Z,8.80
2023-03-07T20:27:21.820Z,8.10
2023-03-07T20:29:50.097Z,9.57
2023-03-07T20:32:18.434Z,6.73
2023-03-07T20:34:51.350Z,8.37
2023-03-07T20:37:19.958Z,7.23
2023-03-07T20:39:48.065Z,7.77
2023-03-07T20:42:16.682Z,6.00
2023-03-07T20:44:44.933Z,7.37
2023-03-07T20:47:13.058Z,7.87
2023-03-07T20:49:41.125Z,7.23
2023-03-07T20:52:10.640Z,7.27
2023-03-07T20:54:38.935Z,7.57
2023-03-07T20:57:07.103Z,7.67
2023-03-07T20:59:35.410Z,6.30
2023-03-07T21:02:03.648Z,8.30
2023-03-07T21:04:31.870Z,6.40
2023-03-07T21:07:00.159Z,7.03
2023-03-07T21:09:29.920Z,6.87
2023-03-07T21:11:58.106Z,4.70
2023-03-07T21:14:27.834Z,4.80
2023-03-07T21:16:55.973Z,4.70
2023-03-07T21:19:24.135Z,4.47
2023-03-07T21:21:52.595Z,3.90
2023-03-07T21:24:20.812Z,4.50
2023-03-07T21:26:50.307Z,4.50
2023-03-07T21:29:19.712Z,4.03
2023-03-07T21:31:47.937Z,3.67
2023-03-07T21:34:16.179Z,6.63
2023-03-07T21:36:45.766Z,5.20
2023-03-07T21:39:13.978Z,6.03
2023-03-07T21:41:42.190Z,7.57
2023-03-07T21:44:12.023Z,5.37
2023-03-07T21:46:40.138Z,10.43
2023-03-07T21:49:08.655Z,14.23
2023-03-07T21:51:36.824Z,12.83
2023-03-07T21:54:05.233Z,7.17
2023-03-07T21:56:33.451Z,7.33
2023-03-07T21:59:01.618Z,7.57
2023-03-07T22:01:34.399Z,4.73
2023-03-07T22:04:02.719Z,5.77
2023-03-07T22:06:31.078Z,6.13
2023-03-07T22:09:00.298Z,5.80
2023-03-07T22:11:28.722Z,8.07
2023-03-07T22:13:56.838Z,6.93
2023-03-07T22:16:24.989Z,9.03
2023-03-07T22:18:55.801Z,14.17
2023-03-07T22:21:26.143Z,9.80
2023-03-07T22:23:57.686Z,11.47
2023-03-07T22:26:29.776Z,11.03
2023-03-07T22:28:58.309Z,15.93
2023-03-07T22:31:27.180Z,12.33
2023-03-07T22:33:56.771Z,14.00
2023-03-07T22:36:24.889Z,15.87
2023-03-07T22:38:56.182Z,19.77
2023-03-07T22:41:25.386Z,17.60
2023-03-07T22:43:53.705Z,18.67
2023-03-07T22:46:22.175Z,19.30
2023-03-07T22:48:53.274Z,19.03
2023-03-07T22:51:23.542Z,20.70
2023-03-07T22:53:51.780Z,19.87
2023-03-07T22:56:21.585Z,22.03
2023-03-07T22:58:50.324Z,22.30
2023-03-07T23:01:21.197Z,22.83
2023-03-07T23:03:49.596Z,19.87
2023-03-07T23:06:18.517Z,20.60
2023-03-07T23:08:49.766Z,22.90
2023-03-07T23:11:19.390Z,25.60
2023-03-07T23:13:47.766Z,26.00
2023-03-07T23:16:18.536Z,19.70
2023-03-07T23:18:50.548Z,22.17
2023-03-07T23:21:20.350Z,24.43
2023-03-07T23:23:50.158Z,22.20
2023-03-07T23:26:19.934Z,23.73
2023-03-07T23:28:48.571Z,20.67
2023-03-07T23:31:18.060Z,23.93
2023-03-07T23:33:46.349Z,21.07
2023-03-07T23:36:14.489Z,24.13
2023-03-07T23:38:42.572Z,23.07
2023-03-07T23:41:12.077Z,22.53
2023-03-07T23:43:40.331Z,19.40
2023-03-07T23:46:08.504Z,21.50
2023-03-07T23:48:36.624Z,23.23
2023-03-07T23:51:04.858Z,20.50
2023-03-07T23:53:32.999Z,22.00
2023-03-07T23:56:01.135Z,18.93
2023-03-07T23:58:30.729Z,23.10
